Time;durP1;ratioP1;P1;durP2;ratioP2;P2;SDS_P1;SDS_P2;PMS_P1;PMS_P2;Temp;Humidity;BMP_temperature;BMP_pressure;BME280_temperature;BME280_humidity;BME280_pressure;Samples;Min_cycle;Max_cycle;Signal;HPM_P1;HPM_P2
2023/09/05 00:00:14;;;;;;;2.60;1.70;;;20.00;71.60;;;;;;5109335;28;20425;-42
2023/09/05 00:02:41;;;;;;;2.80;1.90;;;19.90;71.50;;;;;;5109678;28;20023;-41
2023/09/05 00:05:07;;;;;;;2.90;2.03;;;20.00;71.60;;;;;;5109415;28;20027;-42
2023/09/05 00:07:38;;;;;;;3.00;1.70;;;19.90;71.50;;;;;;5109392;28;20374;-41
2023/09/05 00:10:05;;;;;;;2.38;2.00;;;20.00;71.50;;;;;;5109465;28;20024;-43
2023/09/05 00:12:31;;;;;;;2.17;1.90;;;19.90;71.40;;;;;;5109661;28;20381;-40
2023/09/05 00:14:58;;;;;;;1.90;1.70;;;19.90;71.30;;;;;;5109615;28;20573;-44
2023/09/05 00:17:23;;;;;;;2.38;1.83;;;19.90;71.20;;;;;;5113154;28;20034;-29
2023/09/05 00:19:49;;;;;;;3.70;2.03;;;20.00;71.20;;;;;;5113312;28;20024;-42
2023/09/05 00:22:15;;;;;;;1.80;1.70;;;19.90;71.10;;;;;;5113548;28;20018;-45
2023/09/05 00:24:42;;;;;;;1.98;1.73;;;19.90;71.10;;;;;;5113699;28;20043;-44
2023/09/05 00:27:11;;;;;;;2.60;1.90;;;19.90;71.10;;;;;;5113805;28;20080;-43
2023/09/05 00:29:38;;;;;;;5.43;2.00;;;19.90;71.10;;;;;;5113692;28;20012;-41
2023/09/05 00:32:04;;;;;;;2.40;2.20;;;19.90;71.00;;;;;;5113713;28;20023;-33
2023/09/05 00:34:33;;;;;;;2.63;1.70;;;19.90;71.00;;;;;;5113595;28;20016;-32
2023/09/05 00:37:03;;;;;;;2.53;1.70;;;19.90;71.00;;;;;;5113442;28;20442;-44
2023/09/05 00:39:29;;;;;;;1.60;1.50;;;19.90;70.80;;;;;;5094910;28;20008;-46
2023/09/05 00:41:56;;;;;;;1.90;1.70;;;19.90;70.80;;;;;;5113125;28;20531;-43
2023/09/05 00:44:25;;;;;;;2.08;1.65;;;19.90;70.70;;;;;;5094603;28;20032;-44
2023/09/05 00:46:58;;;;;;;2.85;1.70;;;19.90;70.70;;;;;;5112921;28;20024;-42
2023/09/05 00:49:28;;;;;;;1.73;1.63;;;19.90;70.70;;;;;;5113027;28;20019;-32
2023/09/05 00:51:55;;;;;;;2.17;1.73;;;19.90;70.70;;;;;;5112843;28;20019;-37
2023/09/05 00:54:21;;;;;;;2.17;1.98;;;19.90;70.70;;;;;;5094342;28;20076;-35
2023/09/05 00:56:48;;;;;;;1.80;1.70;;;19.90;70.70;;;;;;5112721;28;20016;-30
2023/09/05 00:59:14;;;;;;;2.58;1.85;;;19.80;70.60;;;;;;5112695;28;20099;-38
2023/09/05 01:01:40;;;;;;;2.00;1.80;;;19.80;70.70;;;;;;5112579;28;20016;-31
2023/09/05 01:04:06;;;;;;;2.38;2.03;;;19.80;70.70;;;;;;5094210;28;20491;-35
2023/09/05 01:06:31;;;;;;;2.33;1.80;;;19.80;70.80;;;;;;5112640;28;20049;-32
2023/09/05 01:09:07;;;;;;;2.00;1.80;;;19.80;70.80;;;;;;5112411;28;20119;-31
2023/09/05 01:11:33;;;;;;;2.15;1.92;;;19.70;70.70;;;;;;5112436;28;20058;-37
2023/09/05 01:13:58;;;;;;;3.45;2.10;;;19.70;70.70;;;;;;5094006;28;20020;-32
2023/09/05 01:16:24;;;;;;;2.83;1.83;;;19.70;70.70;;;;;;5112401;28;20039;-34
2023/09/05 01:18:49;;;;;;;2.40;1.83;;;19.70;70.70;;;;;;5112415;28;20032;-36
2023/09/05 01:21:34;;;;;;;3.60;2.15;;;19.70;70.80;;;;;;5112237;28;20027;-37
2023/09/05 01:24:17;;;;;;;2.40;1.88;;;19.60;70.80;;;;;;5112550;28;20460;-32
2023/09/05 01:26:43;;;;;;;2.87;1.80;;;19.60;70.80;;;;;;5111969;28;20036;-37
2023/09/05 01:29:15;;;;;;;2.65;2.00;;;19.60;70.90;;;;;;5112281;28;20829;-35
2023/09/05 01:31:42;;;;;;;2.22;2.03;;;19.50;71.00;;;;;;5112031;28;20168;-35
2023/09/05 01:34:08;;;;;;;2.08;1.88;;;19.50;71.10;;;;;;5112037;28;20023;-37
2023/09/05 01:36:33;;;;;;;2.67;2.20;;;19.50;71.20;;;;;;5112181;28;20031;-28
2023/09/05 01:38:59;;;;;;;2.55;2.13;;;19.40;71.30;;;;;;5111893;28;20485;-31
2023/09/05 01:41:24;;;;;;;2.80;2.35;;;19.40;71.40;;;;;;5111962;28;20038;-34
2023/09/05 01:43:50;;;;;;;2.63;1.90;;;19.40;71.60;;;;;;5093540;28;20485;-29
2023/09/05 01:46:15;;;;;;;2.90;2.20;;;19.30;71.60;;;;;;5112153;28;20473;-27
2023/09/05 01:48:41;;;;;;;2.05;1.90;;;19.30;71.80;;;;;;5111826;28;20438;-37
2023/09/05 01:51:07;;;;;;;3.80;2.10;;;19.20;71.90;;;;;;5111925;28;20404;-31
2023/09/05 01:53:33;;;;;;;2.22;2.00;;;19.20;71.90;;;;;;5111881;28;20020;-32
2023/09/05 01:55:59;;;;;;;2.67;2.40;;;19.20;72.00;;;;;;5111696;28;20035;-31
2023/09/05 01:58:24;;;;;;;3.60;2.28;;;19.10;72.10;;;;;;5111643;28;20024;-30
2023/09/05 02:00:50;;;;;;;2.85;2.10;;;19.10;72.20;;;;;;5111734;28;20016;-29
2023/09/05 02:03:15;;;;;;;2.22;2.03;;;19.10;72.30;;;;;;5111461;28;20020;-32
2023/09/05 02:05:41;;;;;;;2.67;2.17;;;19.10;72.40;;;;;;5111539;28;20426;-36
2023/09/05 02:08:07;;;;;;;2.63;2.20;;;19.00;72.50;;;;;;5111435;28;20024;-37
2023/09/05 02:10:32;;;;;;;2.40;2.10;;;19.00;72.60;;;;;;5111381;28;20519;-31
2023/09/05 02:12:58;;;;;;;2.47;2.10;;;19.00;72.70;;;;;;5111330;28;20362;-35
2023/09/05 02:15:24;;;;;;;2.65;2.10;;;18.90;72.70;;;;;;5111978;28;20429;-38
2023/09/05 02:17:49;;;;;;;2.28;2.08;;;18.90;72.80;;;;;;5093012;28;20031;-34
2023/09/05 02:20:15;;;;;;;2.47;2.00;;;18.90;72.80;;;;;;5111273;28;20027;-34
2023/09/05 02:22:43;;;;;;;2.55;1.98;;;18.90;73.00;;;;;;5111433;28;20019;-34
2023/09/05 02:25:08;;;;;;;2.20;1.85;;;18.80;73.70;;;;;;5111173;28;20031;-42
2023/09/05 02:27:34;;;;;;;2.97;1.92;;;18.80;73.20;;;;;;5111084;28;20489;-39
2023/09/05 02:30:01;;;;;;;2.65;2.22;;;18.80;73.20;;;;;;5111208;28;20032;-44
2023/09/05 02:32:30;;;;;;;3.05;2.08;;;18.80;73.30;;;;;;5111167;28;20033;-45
2023/09/05 02:34:57;;;;;;;2.05;1.85;;;18.80;73.30;;;;;;5110937;28;20032;-34
2023/09/05 02:37:22;;;;;;;2.25;1.80;;;18.80;73.40;;;;;;5111239;28;20418;-36
2023/09/05 02:39:48;;;;;;;3.05;2.03;;;18.80;73.40;;;;;;5110514;28;20019;-30
2023/09/05 02:42:14;;;;;;;2.38;2.17;;;18.80;73.50;;;;;;5110766;28;20435;-29
2023/09/05 02:44:39;;;;;;;2.83;2.05;;;18.80;73.50;;;;;;5110682;28;20451;-31
2023/09/05 02:47:05;;;;;;;3.95;1.98;;;18.70;73.50;;;;;;5110854;28;20131;-30
2023/09/05 02:49:31;;;;;;;2.45;1.95;;;18.80;73.50;;;;;;5111185;28;20016;-31
2023/09/05 02:51:57;;;;;;;2.50;2.00;;;18.70;73.50;;;;;;5110747;28;20040;-31
2023/09/05 02:54:23;;;;;;;2.30;2.03;;;18.70;73.60;;;;;;5110806;28;20031;-33
2023/09/05 02:56:49;;;;;;;2.25;1.98;;;18.70;73.60;;;;;;5092077;28;20064;-30
2023/09/05 02:59:15;;;;;;;2.30;1.95;;;18.70;73.70;;;;;;5110430;28;20460;-29
2023/09/05 03:01:40;;;;;;;2.78;1.70;;;18.70;73.80;;;;;;5110502;28;20023;-29
2023/09/05 03:04:06;;;;;;;2.20;2.00;;;18.70;73.80;;;;;;5110260;28;20035;-32
2023/09/05 03:06:32;;;;;;;2.00;1.80;;;18.70;73.80;;;;;;5110192;28;20026;-31
2023/09/05 03:08:57;;;;;;;2.85;1.90;;;18.70;73.80;;;;;;5110274;28;20023;-30
2023/09/05 03:11:23;;;;;;;3.20;2.05;;;18.60;73.80;;;;;;5110177;28;20023;-29
2023/09/05 03:13:50;;;;;;;4.55;1.90;;;18.70;74.00;;;;;;5110274;28;20023;-29
2023/09/05 03:16:16;;;;;;;2.72;2.20;;;18.60;74.00;;;;;;5110118;28;20531;-30
2023/09/05 03:18:42;;;;;;;2.88;2.10;;;18.60;74.00;;;;;;5110225;28;20110;-29
2023/09/05 03:21:07;;;;;;;3.20;1.95;;;18.60;74.00;;;;;;5110003;28;20412;-40
2023/09/05 03:23:34;;;;;;;2.20;2.00;;;18.60;74.00;;;;;;5110107;28;20461;-39
2023/09/05 03:26:00;;;;;;;3.03;2.22;;;18.60;74.10;;;;;;5109850;28;20118;-41
2023/09/05 03:28:43;;;;;;;3.35;1.83;;;18.60;74.10;;;;;;5109828;28;20098;-42
2023/09/05 03:31:09;;;;;;;;;;;18.50;74.10;;;;;;5110531;28;20031;-36
2023/09/05 03:33:34;;;;;;;2.78;1.75;;;18.50;74.70;;;;;;5110183;28;19908;-32
2023/09/05 03:36:00;;;;;;;4.28;1.98;;;18.50;74.10;;;;;;5109801;28;20027;-33
2023/09/05 03:38:26;;;;;;;2.55;2.10;;;18.50;74.30;;;;;;5110053;28;20107;-30
2023/09/05 03:40:53;;;;;;;2.42;2.20;;;18.40;74.30;;;;;;5109831;28;20462;-27
2023/09/05 03:43:19;;;;;;;2.97;2.08;;;18.40;74.40;;;;;;5109889;28;20034;-34
2023/09/05 03:45:48;;;;;;;2.42;2.10;;;18.40;74.50;;;;;;5109733;28;20023;-35
2023/09/05 03:48:13;;;;;;;2.10;1.80;;;18.40;74.50;;;;;;5109631;28;20038;-34
2023/09/05 03:50:39;;;;;;;2.63;2.20;;;18.40;74.50;;;;;;5108669;28;20027;-32
2023/09/05 03:53:05;;;;;;;3.88;2.40;;;18.40;74.60;;;;;;5109811;28;20081;-35
2023/09/05 03:55:34;;;;;;;2.60;2.20;;;18.40;74.60;;;;;;5109742;28;20391;-32
2023/09/05 03:58:04;;;;;;;2.42;2.10;;;18.40;74.70;;;;;;5109870;28;20020;-31
2023/09/05 04:00:33;;;;;;;2.50;2.20;;;18.40;74.70;;;;;;5109560;28;20032;-44
2023/09/05 04:02:59;;;;;;;5.57;2.42;;;18.40;74.70;;;;;;5109455;28;20019;-45
2023/09/05 04:05:25;;;;;;;3.05;2.45;;;18.30;74.70;;;;;;5109381;28;20019;-42
2023/09/05 04:07:51;;;;;;;3.75;2.33;;;18.40;74.80;;;;;;5109704;28;20197;-37
2023/09/05 04:10:16;;;;;;;2.47;2.20;;;18.30;74.80;;;;;;5109609;28;20031;-42
2023/09/05 04:12:42;;;;;;;4.45;2.67;;;18.30;74.90;;;;;;5109653;28;20098;-44
2023/09/05 04:15:08;;;;;;;2.40;2.00;;;18.30;75.00;;;;;;5109448;28;20100;-43
2023/09/05 04:17:33;;;;;;;3.97;2.42;;;18.20;75.00;;;;;;5109469;28;20024;-45
2023/09/05 04:19:59;;;;;;;3.10;2.60;;;18.20;75.00;;;;;;5109099;28;20544;-35
2023/09/05 04:22:27;;;;;;;4.18;2.30;;;18.20;75.10;;;;;;5109282;28;20110;-33
2023/09/05 04:24:55;;;;;;;3.15;2.45;;;18.20;75.10;;;;;;5109350;28;20024;-30
2023/09/05 04:27:21;;;;;;;2.30;2.10;;;18.20;75.20;;;;;;5109036;28;20039;-32
2023/09/05 04:29:51;;;;;;;2.65;2.35;;;18.20;75.20;;;;;;5109284;28;20104;-34
2023/09/05 04:32:18;;;;;;;4.32;2.55;;;18.10;75.30;;;;;;5091117;28;20020;-36
2023/09/05 04:34:43;;;;;;;2.58;2.35;;;18.10;75.30;;;;;;5109366;28;20016;-42
2023/09/05 04:37:09;;;;;;;3.25;2.40;;;18.10;75.30;;;;;;5090795;28;20026;-43
2023/09/05 04:39:34;;;;;;;2.63;2.40;;;18.10;75.40;;;;;;5109611;28;20584;-41
2023/09/05 04:42:00;;;;;;;2.65;2.28;;;18.10;75.40;;;;;;5108833;28;20031;-43
2023/09/05 04:44:27;;;;;;;3.03;2.53;;;18.10;75.40;;;;;;5109085;28;20024;-44
2023/09/05 04:47:12;;;;;;;3.70;2.85;;;18.10;75.40;;;;;;5108931;28;20023;-42
2023/09/05 04:49:38;;;;;;;3.45;2.67;;;18.10;75.50;;;;;;5090342;28;20374;-42
2023/09/05 04:52:04;;;;;;;3.70;2.88;;;18.10;75.40;;;;;;5109447;28;20023;-36
2023/09/05 04:54:29;;;;;;;3.03;2.58;;;18.10;75.50;;;;;;5108826;28;20032;-36
2023/09/05 04:56:56;;;;;;;2.83;2.42;;;18.00;75.50;;;;;;5109116;28;20035;-32
2023/09/05 04:59:21;;;;;;;2.90;2.53;;;18.10;75.50;;;;;;5109392;28;20408;-32
2023/09/05 05:01:47;;;;;;;3.38;2.75;;;18.00;75.50;;;;;;5110126;28;20026;-34
2023/09/05 05:04:12;;;;;;;3.45;2.63;;;18.00;75.50;;;;;;5112820;28;20019;-32
2023/09/05 05:06:38;;;;;;;2.80;2.60;;;18.00;75.50;;;;;;5112876;28;20020;-33
2023/09/05 05:09:04;;;;;;;3.30;2.47;;;18.00;75.50;;;;;;5112718;28;20016;-32
2023/09/05 05:11:29;;;;;;;3.17;2.63;;;18.00;76.10;;;;;;5112757;28;20515;-32
2023/09/05 05:13:55;;;;;;;3.45;2.70;;;18.00;75.50;;;;;;5094344;28;20476;-33
2023/09/05 05:16:20;;;;;;;3.65;2.83;;;18.00;75.50;;;;;;5112634;28;20076;-31
2023/09/05 05:18:46;;;;;;;3.08;2.50;;;18.00;75.50;;;;;;5112616;28;20032;-30
2023/09/05 05:21:11;;;;;;;6.80;2.85;;;18.00;75.50;;;;;;5112361;28;20084;-32
2023/09/05 05:23:37;;;;;;;2.97;2.40;;;18.00;75.50;;;;;;5112270;28;20495;-31
2023/09/05 05:26:02;;;;;;;2.90;2.67;;;18.00;75.50;;;;;;5112159;28;20049;-30
2023/09/05 05:28:28;;;;;;;2.90;2.42;;;18.10;75.60;;;;;;5112304;28;20369;-36
2023/09/05 05:30:54;;;;;;;2.42;2.22;;;18.10;75.50;;;;;;5112436;28;20016;-31
2023/09/05 05:33:19;;;;;;;4.32;2.70;;;18.00;75.50;;;;;;5094360;28;20381;-35
2023/09/05 05:35:51;;;;;;;3.20;2.45;;;18.10;75.60;;;;;;5112033;28;20027;-36
2023/09/05 05:38:17;;;;;;;2.43;2.23;;;18.10;75.60;;;;;;5112139;28;20396;-44
2023/09/05 05:40:43;;;;;;;3.20;2.40;;;18.10;75.50;;;;;;5111923;28;20422;-43
2023/09/05 05:43:08;;;;;;;2.92;2.60;;;18.10;75.50;;;;;;5111981;28;20020;-42
2023/09/05 05:45:34;;;;;;;2.78;2.47;;;18.10;75.50;;;;;;5111885;28;20338;-44
2023/09/05 05:47:59;;;;;;;3.20;2.90;;;18.10;75.50;;;;;;5093399;28;20104;-43
2023/09/05 05:50:25;;;;;;;3.83;3.30;;;18.20;75.50;;;;;;5112038;28;20027;-44
2023/09/05 05:52:50;;;;;;;4.43;2.80;;;18.20;75.50;;;;;;5111841;28;20035;-44
2023/09/05 05:55:16;;;;;;;4.03;2.67;;;18.20;75.40;;;;;;5111692;28;20375;-41
2023/09/05 05:57:42;;;;;;;3.78;2.47;;;18.30;75.40;;;;;;5111694;28;20032;-44
2023/09/05 06:00:08;;;;;;;2.97;2.65;;;18.30;75.30;;;;;;5111635;28;20066;-43
2023/09/05 06:02:33;;;;;;;2.95;2.30;;;18.30;75.30;;;;;;5111576;28;20011;-44
2023/09/05 06:04:59;;;;;;;2.67;2.47;;;18.40;75.30;;;;;;5111611;28;20046;-43
2023/09/05 06:07:25;;;;;;;2.63;2.40;;;18.40;75.20;;;;;;5111529;28;20019;-48
2023/09/05 06:09:50;;;;;;;2.67;2.38;;;18.40;75.10;;;;;;5111523;28;20028;-45
2023/09/05 06:12:16;;;;;;;3.83;2.20;;;18.40;75.10;;;;;;5111282;28;20020;-45
2023/09/05 06:14:42;;;;;;;2.97;2.33;;;18.50;75.10;;;;;;5110283;28;20469;-43
2023/09/05 06:17:07;;;;;;;3.88;2.40;;;18.50;75.10;;;;;;5092780;28;20110;-30
2023/09/05 06:19:33;;;;;;;2.88;2.30;;;18.50;74.90;;;;;;5111306;28;20019;-29
2023/09/05 06:21:58;;;;;;;2.30;2.05;;;18.60;74.90;;;;;;5111054;28;20023;-35
2023/09/05 06:24:25;;;;;;;2.88;2.35;;;18.60;74.80;;;;;;5111264;28;20532;-32
2023/09/05 06:26:50;;;;;;;2.63;2.13;;;18.70;74.70;;;;;;5111037;28;20047;-32
2023/09/05 06:29:16;;;;;;;2.92;2.40;;;18.70;74.60;;;;;;5111067;28;20036;-43
2023/09/05 06:31:42;;;;;;;7.05;2.53;;;18.80;74.50;;;;;;5110939;28;20019;-41
2023/09/05 06:34:07;;;;;;;4.45;2.20;;;18.90;74.50;;;;;;5110985;28;20409;-44
2023/09/05 06:36:33;;;;;;;3.22;2.17;;;18.90;74.30;;;;;;5110894;28;20020;-46
2023/09/05 06:38:58;;;;;;;1.85;1.75;;;18.90;74.20;;;;;;5110712;28;20034;-38
2023/09/05 06:41:24;;;;;;;4.25;1.98;;;19.00;74.20;;;;;;5110834;28;20034;-31
2023/09/05 06:43:50;;;;;;;2.13;1.85;;;19.00;74.10;;;;;;5110564;28;20051;-30
2023/09/05 06:46:15;;;;;;;2.30;2.10;;;19.10;74.00;;;;;;5110611;28;20034;-28
2023/09/05 06:48:41;;;;;;;2.17;1.98;;;19.10;73.90;;;;;;5111139;28;20036;-29
2023/09/05 06:51:06;;;;;;;2.45;2.10;;;19.20;73.90;;;;;;5110612;28;20396;-27
2023/09/05 06:53:33;;;;;;;2.53;2.10;;;19.20;73.70;;;;;;5110453;28;20489;-27
2023/09/05 06:55:59;;;;;;;2.30;1.90;;;19.30;73.70;;;;;;5110391;28;20035;-33
2023/09/05 06:58:26;;;;;;;2.22;1.75;;;19.30;73.50;;;;;;5110330;28;20016;-31
2023/09/05 07:00:55;;;;;;;2.38;1.90;;;19.40;73.40;;;;;;5110849;28;20043;-32
2023/09/05 07:03:25;;;;;;;2.40;2.00;;;19.50;73.30;;;;;;5110557;28;20073;-26
2023/09/05 07:05:54;;;;;;;2.83;1.77;;;19.50;73.10;;;;;;5091922;28;20024;-31
2023/09/05 07:08:20;;;;;;;2.45;2.05;;;19.60;73.10;;;;;;5110362;28;20016;-32
2023/09/05 07:10:47;;;;;;;3.15;1.95;;;19.60;72.80;;;;;;5110239;28;20030;-29
2023/09/05 07:13:13;;;;;;;1.95;1.73;;;19.70;72.70;;;;;;5110273;28;20098;-31
2023/09/05 07:15:39;;;;;;;3.88;2.10;;;19.70;72.50;;;;;;5109997;28;20111;-31
2023/09/05 07:18:05;;;;;;;2.33;2.00;;;19.80;72.30;;;;;;5110069;28;20051;-28
2023/09/05 07:20:32;;;;;;;3.28;1.88;;;19.90;72.20;;;;;;5109856;28;20062;-41
2023/09/05 07:22:57;;;;;;;1.50;1.40;;;19.90;72.10;;;;;;5110080;28;20035;-30
2023/09/05 07:25:23;;;;;;;3.70;1.80;;;20.00;71.90;;;;;;5109704;28;20024;-39
2023/09/05 07:27:48;;;;;;;2.20;1.65;;;20.10;71.80;;;;;;5110036;28;20224;-41
2023/09/05 07:30:16;;;;;;;2.42;2.22;;;20.10;71.60;;;;;;5110134;28;20066;-44
2023/09/05 07:32:44;;;;;;;2.60;1.90;;;20.20;71.40;;;;;;5109931;28;20050;-43
2023/09/05 07:35:09;;;;;;;2.25;1.70;;;20.20;71.30;;;;;;5109907;28;20461;-43
2023/09/05 07:37:36;;;;;;;3.53;2.10;;;20.30;71.20;;;;;;5109874;28;20023;-44
2023/09/05 07:40:04;;;;;;;4.22;2.05;;;20.40;71.20;;;;;;5109656;28;20057;-43
2023/09/05 07:42:30;;;;;;;2.35;2.10;;;20.40;71.10;;;;;;5091396;28;20030;-43
2023/09/05 07:44:55;;;;;;;2.83;1.95;;;20.50;71.00;;;;;;5109705;28;20283;-43
2023/09/05 07:47:21;;;;;;;2.30;2.00;;;20.50;71.00;;;;;;5109732;28;20096;-44
2023/09/05 07:49:46;;;;;;;2.15;1.95;;;20.60;70.90;;;;;;5109511;28;20104;-42
2023/09/05 07:52:12;;;;;;;5.05;2.20;;;20.60;70.80;;;;;;5109601;28;20477;-43
2023/09/05 07:54:38;;;;;;;3.40;1.67;;;20.70;70.80;;;;;;5109671;28;20015;-41
2023/09/05 07:57:04;;;;;;;2.78;2.00;;;20.70;70.60;;;;;;5109650;28;20538;-29
2023/09/05 07:59:31;;;;;;;3.30;1.90;;;20.80;70.60;;;;;;5109711;28;20413;-28
2023/09/05 08:01:57;;;;;;;2.63;2.00;;;20.90;70.40;;;;;;5109678;28;20141;-31
2023/09/05 08:04:22;;;;;;;2.83;1.98;;;20.90;70.30;;;;;;5110055;28;20062;-33
2023/09/05 08:06:48;;;;;;;2.53;1.95;;;21.00;70.30;;;;;;5109590;28;20028;-31
2023/09/05 08:09:14;;;;;;;2.95;1.83;;;21.10;70.20;;;;;;5109629;28;20549;-27
2023/09/05 08:11:40;;;;;;;1.98;1.70;;;21.20;70.00;;;;;;5109401;28;20020;-30
2023/09/05 08:14:06;;;;;;;4.45;1.60;;;21.30;69.90;;;;;;5109834;28;20057;-27
2023/09/05 08:16:31;;;;;;;2.50;1.98;;;21.30;69.70;;;;;;5109549;28;20027;-32
2023/09/05 08:18:57;;;;;;;1.70;1.60;;;21.40;69.40;;;;;;5109046;28;20389;-29
2023/09/05 08:21:22;;;;;;;3.17;1.77;;;21.50;69.10;;;;;;5109143;28;20030;-32
2023/09/05 08:23:51;;;;;;;1.73;1.60;;;21.60;68.70;;;;;;5109244;28;20026;-30
2023/09/05 08:26:16;;;;;;;2.80;1.77;;;21.70;68.30;;;;;;5109191;28;20051;-30
2023/09/05 08:28:44;;;;;;;1.83;1.60;;;21.70;68.10;;;;;;5109220;28;20023;-28
2023/09/05 08:31:13;;;;;;;2.88;1.70;;;21.80;67.80;;;;;;5109404;28;20051;-27
2023/09/05 08:33:39;;;;;;;1.63;1.52;;;21.90;67.50;;;;;;5109531;28;20024;-32
2023/09/05 08:36:06;;;;;;;1.75;1.40;;;22.00;67.40;;;;;;5109187;28;20429;-29
2023/09/05 08:38:31;;;;;;;2.30;1.77;;;22.00;67.00;;;;;;5112971;28;20035;-32
2023/09/05 08:41:01;;;;;;;4.10;1.65;;;22.10;66.90;;;;;;5113273;28;20027;-29
2023/09/05 08:43:28;;;;;;;2.33;1.75;;;22.20;66.80;;;;;;5113215;28;20059;-35
2023/09/05 08:45:54;;;;;;;2.72;1.58;;;22.30;66.80;;;;;;5113542;28;20026;-30
2023/09/05 08:48:20;;;;;;;2.80;1.63;;;22.30;66.50;;;;;;5113250;28;20023;-30
2023/09/05 08:50:45;;;;;;;3.60;1.80;;;22.40;66.30;;;;;;5094894;28;20088;-33
2023/09/05 08:53:15;;;;;;;2.03;1.60;;;22.40;66.10;;;;;;5113332;28;20473;-46
2023/09/05 08:55:43;;;;;;;2.20;1.70;;;22.50;66.10;;;;;;5113403;28;20073;-37
2023/09/05 08:58:18;;;;;;;3.67;1.80;;;22.60;65.90;;;;;;5113100;28;20073;-44
2023/09/05 09:00:44;;;;;;;2.67;1.90;;;22.70;65.70;;;;;;5112994;28;20073;-33
2023/09/05 09:03:10;;;;;;;3.70;1.80;;;22.70;65.60;;;;;;5113083;28;20008;-32
2023/09/05 09:05:37;;;;;;;2.35;1.60;;;22.70;65.50;;;;;;5112891;28;20402;-34
2023/09/05 09:08:03;;;;;;;4.20;1.77;;;22.80;65.60;;;;;;5112936;28;20469;-41
2023/09/05 09:10:29;;;;;;;2.53;1.65;;;22.90;65.50;;;;;;5112940;28;20428;-43
2023/09/05 09:13:12;;;;;;;2.55;1.70;;;23.00;65.40;;;;;;5112907;28;20024;-31
2023/09/05 09:15:40;;;;;;;4.05;1.90;;;23.00;65.30;;;;;;5112533;28;20031;-32
2023/09/05 09:18:11;;;;;;;3.15;1.65;;;23.10;65.20;;;;;;5112956;28;20088;-45
2023/09/05 09:20:43;;;;;;;3.08;1.60;;;23.10;65.20;;;;;;5112434;28;20450;-44
2023/09/05 09:23:09;;;;;;;2.42;1.75;;;23.30;64.90;;;;;;5112540;28;20098;-42
2023/09/05 09:25:35;;;;;;;5.63;1.88;;;23.30;64.70;;;;;;5112457;28;20576;-44
2023/09/05 09:28:00;;;;;;;3.30;1.80;;;23.40;64.60;;;;;;5112162;28;20425;-44
2023/09/05 09:30:29;;;;;;;2.35;1.80;;;23.40;64.30;;;;;;5112196;28;20024;-43
2023/09/05 09:32:55;;;;;;;5.63;1.80;;;23.60;64.00;;;;;;5112406;28;20015;-41
2023/09/05 09:35:26;;;;;;;3.10;1.80;;;23.60;63.70;;;;;;5112174;28;20107;-41
2023/09/05 09:37:51;;;;;;;3.10;1.83;;;23.70;63.60;;;;;;5112086;28;20080;-43
2023/09/05 09:40:17;;;;;;;2.90;1.77;;;23.70;63.60;;;;;;5112245;28;20036;-44
2023/09/05 09:42:49;;;;;;;3.05;1.90;;;23.70;63.50;;;;;;5112491;28;20024;-29
2023/09/05 09:45:18;;;;;;;3.08;1.95;;;23.90;63.50;;;;;;5112543;28;20522;-43
2023/09/05 09:47:53;;;;;;;3.55;2.15;;;23.90;63.40;;;;;;5112216;28;20028;-40
2023/09/05 09:50:19;;;;;;;3.33;2.10;;;24.00;63.30;;;;;;5112149;28;20036;-44
2023/09/05 09:52:46;;;;;;;4.93;2.35;;;24.10;62.90;;;;;;5111953;28;20034;-40
2023/09/05 09:55:16;;;;;;;4.93;2.08;;;24.10;62.80;;;;;;5111807;28;20483;-42
2023/09/05 09:57:56;;;;;;;3.53;1.98;;;24.20;62.80;;;;;;5111846;28;20073;-40
2023/09/05 10:00:23;;;;;;;2.65;1.95;;;24.30;62.90;;;;;;5111849;28;20027;-40
2023/09/05 10:02:49;;;;;;;3.30;1.80;;;24.30;62.90;;;;;;5111481;28;20023;-44
2023/09/05 10:05:17;;;;;;;5.00;1.75;;;24.40;62.70;;;;;;5111336;28;20511;-43
2023/09/05 10:07:45;;;;;;;2.72;1.80;;;24.50;62.70;;;;;;5111668;28;20521;-44
2023/09/05 10:10:15;;;;;;;4.35;1.60;;;24.60;63.20;;;;;;5111370;28;20034;-39
2023/09/05 10:12:45;;;;;;;2.03;1.52;;;24.70;62.30;;;;;;5111426;28;20027;-43
2023/09/05 10:15:15;;;;;;;3.20;1.67;;;24.80;62.10;;;;;;5111387;28;20027;-45
2023/09/05 10:17:45;;;;;;;1.73;1.63;;;24.90;61.80;;;;;;5111344;28;20020;-38
2023/09/05 10:20:14;;;;;;;3.08;1.63;;;25.00;61.50;;;;;;5111216;28;20032;-43
2023/09/05 10:22:40;;;;;;;2.38;1.80;;;25.00;61.10;;;;;;5111377;28;20018;-43
2023/09/05 10:25:07;;;;;;;2.05;1.58;;;25.00;60.40;;;;;;5111192;28;20024;-44
2023/09/05 10:27:33;;;;;;;1.88;1.70;;;25.10;60.20;;;;;;5110947;28;20089;-31
2023/09/05 10:29:59;;;;;;;2.80;1.70;;;25.20;60.10;;;;;;5110897;28;20024;-30
2023/09/05 10:32:25;;;;;;;1.50;1.40;;;25.20;59.90;;;;;;5111252;28;20012;-34
2023/09/05 10:34:51;;;;;;;2.40;1.50;;;25.20;59.80;;;;;;5111039;28;20076;-34
2023/09/05 10:37:21;;;;;;;2.45;1.60;;;25.30;59.70;;;;;;5111323;28;20327;-33
2023/09/05 10:39:55;;;;;;;2.83;1.45;;;25.40;59.70;;;;;;5110730;28;20104;-36
2023/09/05 10:42:28;;;;;;;1.60;1.40;;;25.40;59.20;;;;;;5110710;28;20429;-36
2023/09/05 10:44:55;;;;;;;;;;;25.50;59.20;;;;;;5111500;28;20073;-34
2023/09/05 10:47:31;;;;;;;4.85;1.58;;;25.50;59.40;;;;;;5110737;28;19903;-35
2023/09/05 10:50:03;;;;;;;1.85;1.52;;;25.50;59.20;;;;;;5110762;28;20022;-34
2023/09/05 10:52:29;;;;;;;1.60;1.50;;;25.60;58.90;;;;;;5110744;28;20430;-34
2023/09/05 10:54:58;;;;;;;5.53;1.83;;;25.70;59.00;;;;;;5110599;28;20012;-35
2023/09/05 10:57:40;;;;;;;4.50;1.50;;;25.80;58.90;;;;;;5110551;28;20034;-34
2023/09/05 11:00:15;;;;;;;1.70;1.33;;;25.90;58.50;;;;;;5110191;28;20039;-32
2023/09/05 11:02:42;;;;;;;2.13;1.20;;;25.90;58.40;;;;;;5110397;28;20023;-32
2023/09/05 11:05:18;;;;;;;2.42;1.45;;;26.00;58.30;;;;;;5110516;28;20027;-35
2023/09/05 11:07:49;;;;;;;2.50;1.48;;;26.10;58.10;;;;;;5091710;28;20023;-33
2023/09/05 11:10:29;;;;;;;2.03;1.60;;;26.10;57.80;;;;;;5110333;28;20057;-31
2023/09/05 11:12:55;;;;;;;1.98;1.33;;;26.20;57.70;;;;;;5110205;28;20059;-34
2023/09/05 11:15:31;;;;;;;2.95;1.40;;;26.30;57.40;;;;;;5110108;28;20020;-34
2023/09/05 11:18:01;;;;;;;1.63;1.33;;;26.30;57.20;;;;;;5110061;28;20111;-31
2023/09/05 11:20:44;;;;;;;1.95;0.80;;;26.40;57.20;;;;;;5110087;28;20034;-30
2023/09/05 11:23:28;;;;;;;1.80;1.40;;;26.50;57.10;;;;;;5110033;28;20016;-37
2023/09/05 11:26:00;;;;;;;2.42;1.38;;;26.60;57.00;;;;;;5109896;28;20020;-32
2023/09/05 11:28:26;;;;;;;1.20;1.10;;;26.60;56.50;;;;;;5110421;28;20385;-34
2023/09/05 11:30:56;;;;;;;1.67;1.30;;;26.60;56.30;;;;;;5110118;28;20020;-35
2023/09/05 11:33:22;;;;;;;1.40;1.30;;;26.70;56.20;;;;;;5109949;28;20500;-33
2023/09/05 11:35:49;;;;;;;2.08;1.20;;;26.70;56.20;;;;;;5109966;28;20024;-36
2023/09/05 11:38:16;;;;;;;1.77;1.10;;;26.70;56.30;;;;;;5109581;28;20016;-44
2023/09/05 11:40:51;;;;;;;1.45;1.33;;;26.80;56.50;;;;;;5109687;28;20035;-41
2023/09/05 11:43:17;;;;;;;1.95;1.50;;;26.90;56.40;;;;;;5109547;28;20023;-44
2023/09/05 11:45:45;;;;;;;1.60;1.48;;;27.00;56.30;;;;;;5109488;28;20528;-40
2023/09/05 11:48:12;;;;;;;2.28;1.50;;;27.10;57.00;;;;;;5109430;28;20024;-42
2023/09/05 11:50:44;;;;;;;1.77;1.25;;;27.20;56.20;;;;;;5109766;28;20510;-42
2023/09/05 11:53:16;;;;;;;1.40;1.30;;;27.20;56.20;;;;;;5109294;28;20032;-44
2023/09/05 11:55:42;;;;;;;1.50;1.40;;;27.30;56.10;;;;;;5109357;28;20019;-45
2023/09/05 11:58:09;;;;;;;1.65;1.55;;;27.40;56.00;;;;;;5109418;28;20024;-44
2023/09/05 12:00:42;;;;;;;1.40;1.20;;;27.40;55.40;;;;;;5109326;28;20035;-43
2023/09/05 12:03:12;;;;;;;2.40;1.50;;;27.50;55.30;;;;;;5109385;28;20023;-43
2023/09/05 12:05:38;;;;;;;2.35;1.48;;;27.60;55.30;;;;;;5109244;28;20358;-42
2023/09/05 12:08:06;;;;;;;2.20;1.30;;;27.60;55.00;;;;;;5109277;28;20062;-43
2023/09/05 12:11:01;;;;;;;1.55;1.27;;;27.70;55.10;;;;;;5109279;28;20067;-41
2023/09/05 12:13:45;;;;;;;2.75;1.38;;;27.80;54.90;;;;;;5113310;28;20438;-42
2023/09/05 12:16:16;;;;;;;1.90;1.40;;;27.80;54.80;;;;;;5113371;28;20028;-43
2023/09/05 12:18:42;;;;;;;1.40;1.25;;;27.90;54.70;;;;;;5113754;28;20020;-42
2023/09/05 12:21:08;;;;;;;2.58;1.20;;;27.90;54.50;;;;;;5113536;28;20032;-41
2023/09/05 12:23:34;;;;;;;1.25;1.15;;;27.90;54.30;;;;;;5113542;28;20192;-41
2023/09/05 12:25:59;;;;;;;1.55;1.20;;;27.90;54.30;;;;;;5113352;28;20028;-44
2023/09/05 12:28:26;;;;;;;1.65;1.10;;;28.00;54.60;;;;;;5113137;28;20008;-42
2023/09/05 12:31:08;;;;;;;1.60;1.23;;;28.10;53.80;;;;;;5113316;28;20027;-43
2023/09/05 12:33:33;;;;;;;1.15;1.05;;;28.20;53.90;;;;;;5113116;28;20024;-40
2023/09/05 12:35:59;;;;;;;1.25;1.10;;;28.30;53.90;;;;;;5113293;28;20081;-40
2023/09/05 12:38:25;;;;;;;1.30;1.20;;;28.40;53.70;;;;;;5113245;28;20028;-44
2023/09/05 12:40:50;;;;;;;1.10;1.00;;;28.40;53.40;;;;;;5112820;28;20031;-43
2023/09/05 12:43:16;;;;;;;1.35;1.25;;;28.50;53.20;;;;;;5113091;28;20016;-41
2023/09/05 12:45:42;;;;;;;1.52;1.20;;;28.50;52.90;;;;;;5112834;28;20019;-41
2023/09/05 12:48:08;;;;;;;1.67;1.30;;;28.50;52.80;;;;;;5113524;28;20023;-40